الرياض, السعودية

06:34 PM AST on êèنêè 23, 2014 (GMT +0300)
Alsahafah (IRIYADHP2) Elev 2129 ft | 24.79 °N, 46.65 °E | Change Station

Current weather conditions updated 10 seconds ago

Clear
صافية
100.9 °F
Feels Like 97 °F
N
9.2
ريح متغير ريح from شمال
Gusts 15.2 mph

Tomorrow is forecast to be nearly the same temperature as today.

هذا اليوم
High -- | Low -- °F
--% Chance of Precip.
Yesterday
High -- | Low -- °F
Precip. -- في
5:16 AM 6:42 PM
الهلال الأخير, 10% visible
الضغط 29.68 في
وضوح الرؤية -9999.0 أميال
سحابات
مؤشر الحرارة 97 °F
نقطة الندى 45 °F
الرطوبة 15%
Rainfall 0.00 في
عمق الثلج Not available.
الأشعة فوق البنفسجية Not available.
Pollen Not available.
جودة الهواء Not available.
Flu Activity Not available.
METAR OERK 231500Z 33011KT CAVOK 39/00 Q1005 NOSIG

More Conditions Fewer Conditions

الضغط 29.68 في
وضوح الرؤية -9999.0 أميال
سحابات
مؤشر الحرارة 97 °F
نقطة الندى 45 °F
الرطوبة 15%
Rainfall 0.00 في
عمق الثلج Not available.
الأشعة فوق البنفسجية Not available.
Pollen Not available.
جودة الهواء Not available.
Flu Activity Not available.
METAR OERK 231500Z 33011KT CAVOK 39/00 Q1005 NOSIG

More Conditions Fewer Conditions

10-Day Weather Forecast

Almanac

علم الفلك

Jul. 23, 2014 Rise Set
Actual Time 5:16 AM AST 6:42 PM AST
Civil Twilight 4:51 AM AST 7:07 PM AST
Nautical Twilight 4:22 AM AST 7:36 PM AST
Astronomical Twilight 3:51 AM AST 8:07 PM AST
قمر 2:15 AM AST 3:54 PM AST
Length Of Visible Light 14h 15m
طول الیوم
13h 25m
Tomorrow will be 0m 54s shorter.
الهلال الأخير, 10% of the Moon is Illuminated
هذا اليوم
الهلال الأخير
Jul 26
New
Aug 3
الربع الاول
Aug 10
بدر
Aug 17
الربع الآخر

Today's Extremes

Country Highs Country Lows

Community

WunderPhotos

Upload Photos

1,736,629 photos uploaded!

Nearby

جودة الهواء

Not available.

عمق الثلج

Not available.

Earthquake Activity

City Distance Mag. Time & Date
No recent earthquake activity has been reported nearby.
Minimum magnitude displayed is 2.5.

Coastal Water Temperatures

مكان درجات الحرارة
No Stations Reporting

Nearby Weather Stations

Station Location الحرارة مؤشر الحرارة نقطة الندى الرطوبة ريح Precip. Elev تحديث Type
Alsahafah, Riyadh 100.9 °F 97 °F 45 °F 15% شمال  عند  9.2 mph 0.00 في / hr 2129 ft 6:34 PM AST Rapid Fire
Al Nakhil, Riyadh 100.2 °F 95 °F 34 °F 10% NW  عند  5.4 mph 0.00 في / hr 2198 ft 6:34 PM AST Rapid Fire

Show More Stations Show Fewer Stations